createdAt,value
2017-12-31T00:00:51.101Z,100410.45
2017-12-31T00:03:19.981Z,100419.30
2017-12-31T00:05:49.175Z,100423.92
2017-12-31T00:08:19.026Z,100423.57
2017-12-31T00:10:48.038Z,100424.91
2017-12-31T00:13:18.204Z,100434.03
2017-12-31T00:15:48.020Z,100438.75
2017-12-31T00:18:18.465Z,100439.63
2017-12-31T00:20:49.229Z,100445.17
2017-12-31T00:23:18.202Z,100447.76
2017-12-31T00:25:48.029Z,100449.88
2017-12-31T00:28:17.008Z,100454.51
2017-12-31T00:30:45.967Z,100459.19
2017-12-31T00:33:15.871Z,100455.47
2017-12-31T00:35:44.901Z,100457.66
2017-12-31T00:38:14.106Z,100464.45
2017-12-31T00:40:43.877Z,100472.77
2017-12-31T00:43:12.817Z,100466.88
2017-12-31T00:45:41.932Z,100464.37
2017-12-31T00:48:12.604Z,100469.49
2017-12-31T00:50:41.405Z,100472.33
2017-12-31T00:53:10.252Z,100463.36
2017-12-31T00:55:39.081Z,100469.65
2017-12-31T00:58:07.895Z,100475.46
2017-12-31T01:00:36.770Z,100472.00
2017-12-31T01:03:05.770Z,100468.72
2017-12-31T01:05:34.621Z,100470.90
2017-12-31T01:08:03.570Z,100472.30
2017-12-31T01:10:34.240Z,100475.28
2017-12-31T01:13:03.103Z,100479.76
2017-12-31T01:15:32.088Z,100479.80
2017-12-31T01:18:03.738Z,100479.91
2017-12-31T01:20:32.873Z,100484.13
2017-12-31T01:23:01.823Z,100481.64
2017-12-31T01:25:31.144Z,100481.23
2017-12-31T01:28:01.149Z,100481.30
2017-12-31T01:30:30.994Z,100473.34
2017-12-31T01:33:00.659Z,100476.71
2017-12-31T01:35:29.688Z,100473.36
2017-12-31T01:37:58.807Z,100475.02
2017-12-31T01:40:28.017Z,100483.09
2017-12-31T01:42:56.981Z,100472.23
2017-12-31T01:45:25.797Z,100475.55
2017-12-31T01:47:56.500Z,100478.42
2017-12-31T01:50:25.771Z,100478.50
2017-12-31T01:52:54.583Z,100475.10
2017-12-31T01:55:23.453Z,100478.11
2017-12-31T01:57:52.406Z,100482.28
2017-12-31T02:00:21.211Z,100479.75
2017-12-31T02:02:50.214Z,100484.91
2017-12-31T02:05:18.990Z,100491.13
2017-12-31T02:07:47.845Z,100487.72
2017-12-31T02:10:16.944Z,100489.73
2017-12-31T02:12:45.777Z,100484.00
2017-12-31T02:15:14.740Z,100490.70
2017-12-31T02:17:43.664Z,100488.69
2017-12-31T02:20:12.567Z,100490.44
2017-12-31T02:22:41.490Z,100486.47
2017-12-31T02:25:12.123Z,100487.36
2017-12-31T02:27:41.088Z,100492.42
2017-12-31T02:30:09.878Z,100492.02
2017-12-31T02:32:38.832Z,100492.24
2017-12-31T02:35:07.855Z,100495.56
2017-12-31T02:37:36.716Z,100496.34
2017-12-31T02:40:05.596Z,100492.98
2017-12-31T02:42:34.412Z,100501.88
2017-12-31T02:45:03.408Z,100498.91
2017-12-31T02:47:34.014Z,100500.95
2017-12-31T02:50:02.942Z,100505.63
2017-12-31T02:52:31.897Z,100508.20
2017-12-31T02:55:00.828Z,100509.48
2017-12-31T02:57:29.666Z,100504.41
2017-12-31T02:59:58.482Z,100506.92
2017-12-31T03:02:27.351Z,100509.05
2017-12-31T03:04:56.199Z,100509.91
2017-12-31T03:07:25.126Z,100514.95
2017-12-31T03:09:54.196Z,100515.02
2017-12-31T03:12:23.159Z,100506.80
2017-12-31T03:14:51.994Z,100515.63
2017-12-31T03:17:20.879Z,100524.48
2017-12-31T03:19:49.649Z,100527.94
2017-12-31T03:22:18.671Z,100523.81
2017-12-31T03:27:21.160Z,100533.14
2017-12-31T03:29:50.254Z,100530.77
2017-12-31T03:32:21.345Z,100536.11
2017-12-31T03:34:50.193Z,100536.78
2017-12-31T03:37:19.139Z,100538.00
2017-12-31T03:39:49.738Z,100541.14
2017-12-31T03:42:18.613Z,100542.66
2017-12-31T03:44:47.677Z,100543.79
2017-12-31T03:47:17.761Z,100548.36
2017-12-31T03:49:46.762Z,100542.21
2017-12-31T03:52:15.688Z,100540.92
2017-12-31T03:54:44.706Z,100540.28
2017-12-31T03:57:14.682Z,100547.42
2017-12-31T03:59:43.479Z,100548.67
2017-12-31T04:02:12.386Z,100550.40
2017-12-31T04:04:41.178Z,100545.41
2017-12-31T04:07:10.061Z,100558.77
2017-12-31T04:09:38.922Z,100560.88
2017-12-31T04:12:07.723Z,100564.62
2017-12-31T04:14:36.674Z,100570.52
2017-12-31T04:19:39.701Z,100570.05
2017-12-31T04:22:08.603Z,100567.12
2017-12-31T04:24:38.444Z,100573.00
2017-12-31T04:27:07.344Z,100570.47
2017-12-31T04:29:36.258Z,100570.80
2017-12-31T04:32:05.153Z,100568.19
2017-12-31T04:34:34.140Z,100570.33
2017-12-31T04:37:02.968Z,100573.31
2017-12-31T04:39:32.729Z,100570.20
2017-12-31T04:42:01.677Z,100565.64
2017-12-31T04:44:30.587Z,100569.89
2017-12-31T04:46:59.499Z,100571.92
2017-12-31T04:49:28.308Z,100571.00
2017-12-31T04:51:57.254Z,100567.48
2017-12-31T04:54:26.097Z,100564.04
2017-12-31T04:56:54.878Z,100555.87
2017-12-31T04:59:23.741Z,100565.30
2017-12-31T05:04:26.716Z,100563.28
2017-12-31T05:06:55.720Z,100576.98
2017-12-31T05:09:24.820Z,100578.34
2017-12-31T05:11:53.755Z,100571.68
2017-12-31T05:14:22.784Z,100576.72
2017-12-31T05:19:25.535Z,100572.80
2017-12-31T05:21:54.294Z,100568.65
2017-12-31T05:24:23.379Z,100570.65
2017-12-31T05:26:53.108Z,100576.86
2017-12-31T05:29:21.912Z,100578.07
2017-12-31T05:31:51.031Z,100577.43
2017-12-31T05:34:20.029Z,100578.50
2017-12-31T05:36:48.923Z,100576.16
2017-12-31T05:39:17.938Z,100579.54
2017-12-31T05:41:46.886Z,100580.25
2017-12-31T05:44:16.961Z,100584.09
2017-12-31T05:46:46.811Z,100580.48
2017-12-31T05:49:15.752Z,100572.09
2017-12-31T05:51:44.642Z,100582.06
2017-12-31T05:54:14.751Z,100589.08
2017-12-31T05:56:43.541Z,100587.03
2017-12-31T05:59:12.357Z,100597.54
2017-12-31T06:01:43.837Z,100585.36
2017-12-31T06:04:12.774Z,100584.08
2017-12-31T06:06:41.689Z,100584.81
2017-12-31T06:09:10.760Z,100578.80
2017-12-31T06:11:39.645Z,100581.48
2017-12-31T06:14:08.771Z,100588.77
2017-12-31T06:16:37.733Z,100588.61
2017-12-31T06:19:06.631Z,100595.91
2017-12-31T06:21:36.387Z,100594.52
2017-12-31T06:24:06.133Z,100596.27
2017-12-31T06:26:35.041Z,100604.09
2017-12-31T06:29:03.828Z,100609.69
2017-12-31T06:31:33.522Z,100616.94
2017-12-31T06:34:02.467Z,100620.22
2017-12-31T06:36:31.292Z,100626.45
2017-12-31T06:39:02.158Z,100627.17
2017-12-31T06:41:32.117Z,100613.75
2017-12-31T06:44:00.965Z,100625.80
2017-12-31T06:46:32.766Z,100632.94
2017-12-31T06:49:01.772Z,100630.52
2017-12-31T06:51:31.124Z,100640.37
2017-12-31T06:54:00.050Z,100640.93
2017-12-31T06:56:28.899Z,100647.27
2017-12-31T06:58:57.739Z,100652.37
2017-12-31T07:01:28.547Z,100643.00
2017-12-31T07:03:57.365Z,100645.75
2017-12-31T07:06:26.339Z,100646.29
2017-12-31T07:08:56.813Z,100642.95
2017-12-31T07:11:25.760Z,100646.48
2017-12-31T07:13:54.640Z,100641.59
2017-12-31T07:16:23.558Z,100646.66
2017-12-31T07:18:52.574Z,100648.09
2017-12-31T07:21:21.852Z,100646.67
2017-12-31T07:23:51.787Z,100649.00
2017-12-31T07:26:20.728Z,100654.41
2017-12-31T07:28:49.693Z,100642.87
2017-12-31T07:31:20.456Z,100644.11
2017-12-31T07:33:49.352Z,100645.41
2017-12-31T07:36:18.239Z,100639.45
2017-12-31T07:38:47.092Z,100640.90
2017-12-31T07:41:15.952Z,100638.70
2017-12-31T07:43:44.777Z,100644.16
2017-12-31T07:46:15.468Z,100647.89
2017-12-31T07:48:44.365Z,100645.43
2017-12-31T07:51:13.153Z,100638.73
2017-12-31T07:53:42.026Z,100636.77
2017-12-31T07:56:10.955Z,100647.59
2017-12-31T07:58:39.851Z,100654.13
2017-12-31T08:01:09.573Z,100652.92
2017-12-31T08:03:38.493Z,100662.74
2017-12-31T08:06:07.339Z,100657.24
2017-12-31T08:08:36.265Z,100660.16
2017-12-31T08:11:05.104Z,100654.37
2017-12-31T08:13:33.920Z,100650.33
2017-12-31T08:16:04.434Z,100652.28
2017-12-31T08:18:33.354Z,100657.09
2017-12-31T08:21:02.203Z,100665.34
2017-12-31T08:23:34.286Z,100665.99
2017-12-31T08:26:03.310Z,100663.27
2017-12-31T08:28:32.178Z,100664.48
2017-12-31T08:31:02.334Z,100668.83
2017-12-31T08:33:31.143Z,100676.19
2017-12-31T08:36:00.030Z,100673.70
2017-12-31T08:38:28.932Z,100677.45
2017-12-31T08:40:57.793Z,100675.44
2017-12-31T08:43:26.638Z,100677.16
2017-12-31T08:45:55.594Z,100670.58
2017-12-31T08:48:24.733Z,100671.36
2017-12-31T08:50:53.757Z,100662.55
2017-12-31T08:53:22.813Z,100660.91
2017-12-31T08:55:52.380Z,100669.25
2017-12-31T08:58:21.434Z,100668.61
2017-12-31T09:00:50.374Z,100659.81
2017-12-31T09:03:19.467Z,100671.79
2017-12-31T09:05:48.367Z,100674.32
2017-12-31T09:08:18.117Z,100670.16
2017-12-31T09:10:46.983Z,100659.23
2017-12-31T09:13:15.895Z,100669.34
2017-12-31T09:15:48.513Z,100679.02
2017-12-31T09:18:19.874Z,100663.91
2017-12-31T09:20:52.137Z,100645.38
2017-12-31T09:23:24.817Z,100652.56
2017-12-31T09:25:58.300Z,100653.09
2017-12-31T09:28:32.249Z,100645.98
2017-12-31T09:31:03.976Z,100648.55
2017-12-31T09:33:35.222Z,100656.16
2017-12-31T09:38:43.146Z,100649.52
2017-12-31T09:43:50.149Z,100645.35
2017-12-31T09:46:21.124Z,100642.92
2017-12-31T09:48:54.683Z,100629.44
2017-12-31T09:51:23.549Z,100619.90
2017-12-31T09:53:52.342Z,100624.53
2017-12-31T09:56:26.164Z,100621.33
2017-12-31T09:58:57.929Z,100602.48
2017-12-31T10:01:32.417Z,100599.59
2017-12-31T10:04:05.534Z,100597.52
2017-12-31T10:09:10.796Z,100597.59
2017-12-31T10:11:41.150Z,100601.41
2017-12-31T10:14:13.557Z,100587.52
2017-12-31T10:16:45.058Z,100577.45
2017-12-31T10:21:53.089Z,100570.30
2017-12-31T10:24:22.036Z,100567.69
2017-12-31T10:26:51.935Z,100556.78
2017-12-31T10:29:20.789Z,100556.78
2017-12-31T10:31:49.616Z,100556.41
2017-12-31T10:34:18.436Z,100553.15
2017-12-31T10:36:47.268Z,100556.98
2017-12-31T10:39:17.044Z,100556.62
2017-12-31T10:41:49.354Z,100563.39
2017-12-31T10:44:20.500Z,100557.50
2017-12-31T10:46:50.115Z,100544.83
2017-12-31T10:49:19.172Z,100542.76
2017-12-31T10:51:48.019Z,100554.19
2017-12-31T10:54:19.019Z,100548.68
2017-12-31T10:56:58.094Z,100553.36
2017-12-31T10:59:29.150Z,100558.91
2017-12-31T11:02:00.562Z,100557.65
2017-12-31T11:04:30.396Z,100553.84
2017-12-31T11:07:00.289Z,100548.77
2017-12-31T11:09:29.829Z,100552.15
2017-12-31T11:11:59.910Z,100547.08
2017-12-31T11:14:32.235Z,100552.56
2017-12-31T11:17:02.624Z,100555.10
2017-12-31T11:19:31.434Z,100549.62
2017-12-31T11:22:00.353Z,100552.62
2017-12-31T11:24:29.218Z,100551.77
2017-12-31T11:26:58.175Z,100558.12
2017-12-31T11:29:29.209Z,100557.28
2017-12-31T11:31:58.178Z,100566.16
2017-12-31T11:34:27.113Z,100558.97
2017-12-31T11:39:30.673Z,100548.77
2017-12-31T11:41:59.597Z,100553.42
2017-12-31T11:44:28.932Z,100546.69
2017-12-31T11:46:58.157Z,100547.92
2017-12-31T11:49:27.278Z,100552.20
2017-12-31T11:51:57.069Z,100546.27
2017-12-31T11:54:27.216Z,100544.97
2017-12-31T11:56:56.126Z,100555.95
2017-12-31T11:59:25.123Z,100567.78
2017-12-31T12:01:54.417Z,100568.19
2017-12-31T12:04:23.918Z,100563.06
2017-12-31T12:06:55.888Z,100568.95
2017-12-31T12:09:26.895Z,100584.59
2017-12-31T12:11:58.484Z,100568.87
2017-12-31T12:14:27.615Z,100583.98
2017-12-31T12:16:58.061Z,100578.91
2017-12-31T12:19:27.770Z,100575.34
2017-12-31T12:21:58.003Z,100582.09
2017-12-31T12:24:27.751Z,100583.66
2017-12-31T12:26:58.159Z,100583.97
2017-12-31T12:29:27.553Z,100583.97
2017-12-31T12:32:02.913Z,100586.86
2017-12-31T12:34:33.195Z,100593.19
2017-12-31T12:37:06.777Z,100586.69
2017-12-31T12:39:37.225Z,100586.74
2017-12-31T12:42:08.824Z,100585.05
2017-12-31T12:44:39.995Z,100578.84
2017-12-31T12:47:12.344Z,100578.56
2017-12-31T12:49:44.308Z,100579.44
2017-12-31T12:52:13.739Z,100574.87
2017-12-31T12:54:43.481Z,100576.63
2017-12-31T12:57:13.164Z,100580.06
2017-12-31T12:59:44.830Z,100586.83
2017-12-31T13:02:14.674Z,100595.33
2017-12-31T13:04:46.789Z,100593.55
2017-12-31T13:07:19.220Z,100598.63
2017-12-31T13:09:48.797Z,100599.36
2017-12-31T13:12:17.640Z,100598.90
2017-12-31T13:14:46.815Z,100603.94
2017-12-31T13:17:16.743Z,100598.00
2017-12-31T13:19:45.806Z,100587.81
2017-12-31T13:22:14.952Z,100599.28
2017-12-31T13:24:44.149Z,100599.25
2017-12-31T13:27:13.564Z,100598.46
2017-12-31T13:29:42.640Z,100601.81
2017-12-31T13:32:11.575Z,100605.20
2017-12-31T13:34:40.671Z,100592.95
2017-12-31T13:37:10.393Z,100596.72
2017-12-31T13:39:41.028Z,100585.67
2017-12-31T13:42:10.554Z,100588.70
2017-12-31T13:44:40.480Z,100591.25
2017-12-31T13:47:09.645Z,100607.28
2017-12-31T13:49:38.719Z,100610.59
2017-12-31T13:52:07.713Z,100605.03
2017-12-31T13:54:36.613Z,100595.28
2017-12-31T13:57:05.602Z,100589.70
2017-12-31T13:59:34.917Z,100581.28
2017-12-31T14:02:06.053Z,100579.11
2017-12-31T14:04:35.163Z,100573.05
2017-12-31T14:07:05.105Z,100566.99
2017-12-31T14:09:35.198Z,100570.31
2017-12-31T14:12:05.008Z,100563.02
2017-12-31T14:14:35.224Z,100570.58
2017-12-31T14:17:05.059Z,100570.09
2017-12-31T14:19:35.463Z,100554.74
2017-12-31T14:22:09.543Z,100557.20
2017-12-31T14:24:39.509Z,100549.60
2017-12-31T14:27:09.272Z,100541.01
2017-12-31T14:32:14.861Z,100536.21
2017-12-31T15:16:42.579Z,100539.45
2017-12-31T15:19:11.641Z,100537.26
2017-12-31T15:21:40.732Z,100533.88
2017-12-31T15:24:10.615Z,100528.30
2017-12-31T15:26:42.664Z,100529.92
2017-12-31T15:29:12.514Z,100538.05
2017-12-31T15:31:41.900Z,100536.77
2017-12-31T15:34:11.102Z,100521.58
2017-12-31T15:36:40.830Z,100532.50
2017-12-31T15:39:10.107Z,100542.56
2017-12-31T15:41:39.595Z,100542.06
2017-12-31T15:44:10.878Z,100539.86
2017-12-31T15:46:40.957Z,100529.45
2017-12-31T15:49:10.100Z,100521.34
2017-12-31T15:51:43.649Z,100523.34
2017-12-31T15:54:12.627Z,100522.91
2017-12-31T15:56:42.044Z,100533.91
2017-12-31T16:01:45.315Z,100527.66
2017-12-31T16:04:14.635Z,100532.34
2017-12-31T16:06:45.888Z,100526.94
2017-12-31T16:09:15.058Z,100524.70
2017-12-31T16:11:45.308Z,100531.42
2017-12-31T16:14:17.767Z,100528.03
2017-12-31T16:16:47.166Z,100521.63
2017-12-31T16:19:16.179Z,100523.34
2017-12-31T16:21:45.977Z,100522.09
2017-12-31T16:24:15.047Z,100526.39
2017-12-31T16:26:45.581Z,100531.51
2017-12-31T16:29:17.101Z,100528.96
2017-12-31T16:31:48.713Z,100526.92
2017-12-31T16:34:20.156Z,100520.21
2017-12-31T16:36:49.959Z,100532.89
2017-12-31T16:39:18.965Z,100529.31
2017-12-31T16:41:49.902Z,100528.48
2017-12-31T16:44:19.117Z,100528.53
2017-12-31T16:46:48.211Z,100528.53
2017-12-31T16:49:19.694Z,100530.36
2017-12-31T16:51:48.816Z,100527.89
2017-12-31T16:54:17.929Z,100528.80
2017-12-31T16:56:47.168Z,100533.06
2017-12-31T16:59:16.984Z,100541.25
2017-12-31T17:01:50.166Z,100543.44
2017-12-31T17:04:19.142Z,100543.55
2017-12-31T17:06:48.281Z,100546.65
2017-12-31T17:09:17.334Z,100546.55
2017-12-31T17:11:46.217Z,100548.64
2017-12-31T17:14:15.246Z,100560.13
2017-12-31T17:16:49.132Z,100553.80
2017-12-31T17:19:18.966Z,100554.76
2017-12-31T17:21:48.067Z,100560.67
2017-12-31T17:24:17.014Z,100561.97
2017-12-31T17:26:47.141Z,100559.58
2017-12-31T17:29:15.986Z,100561.28
2017-12-31T17:31:46.385Z,100551.48
2017-12-31T17:34:15.333Z,100551.53
2017-12-31T17:36:44.685Z,100549.81
2017-12-31T17:39:13.574Z,100551.96
2017-12-31T17:41:44.905Z,100553.05
2017-12-31T17:44:14.128Z,100550.45
2017-12-31T17:46:44.062Z,100553.19
2017-12-31T17:49:13.100Z,100551.67
2017-12-31T17:51:41.950Z,100554.59
2017-12-31T17:54:11.809Z,100549.87
2017-12-31T17:56:40.798Z,100543.56
2017-12-31T17:59:09.790Z,100551.16
2017-12-31T18:01:39.943Z,100559.19
2017-12-31T18:04:09.012Z,100559.34
2017-12-31T18:06:38.038Z,100564.91
2017-12-31T18:09:07.066Z,100566.95
2017-12-31T18:11:36.406Z,100569.58
2017-12-31T18:14:06.316Z,100563.62
2017-12-31T18:16:37.113Z,100560.20
2017-12-31T18:19:06.275Z,100558.37
2017-12-31T18:21:38.785Z,100552.17
2017-12-31T18:24:07.860Z,100559.77
2017-12-31T18:26:36.921Z,100559.62
2017-12-31T18:29:08.160Z,100554.39
2017-12-31T18:31:37.566Z,100554.40
2017-12-31T18:34:06.555Z,100552.66
2017-12-31T18:36:37.510Z,100558.22
2017-12-31T18:39:06.700Z,100559.13
2017-12-31T18:41:39.226Z,100566.67
2017-12-31T18:44:12.120Z,100574.56
2017-12-31T18:46:50.109Z,100569.34
2017-12-31T18:49:21.934Z,100572.98
2017-12-31T18:54:27.213Z,100575.78
2017-12-31T18:56:56.280Z,100568.63
2017-12-31T18:59:26.128Z,100573.16
2017-12-31T19:01:56.128Z,100574.25
2017-12-31T19:04:25.177Z,100571.14
2017-12-31T19:06:58.393Z,100571.69
2017-12-31T19:09:32.020Z,100576.06
2017-12-31T19:12:06.905Z,100574.16
2017-12-31T19:14:36.546Z,100566.28
2017-12-31T19:17:05.475Z,100568.13
2017-12-31T19:19:34.561Z,100564.09
2017-12-31T19:22:03.524Z,100561.28
2017-12-31T19:24:33.084Z,100561.28
2017-12-31T19:27:03.942Z,100566.91
2017-12-31T19:29:32.862Z,100559.77
2017-12-31T19:32:07.731Z,100567.03
2017-12-31T19:34:36.578Z,100555.59
2017-12-31T19:37:05.591Z,100555.61
2017-12-31T19:39:35.459Z,100561.98
2017-12-31T19:42:06.103Z,100558.88
2017-12-31T19:44:35.866Z,100568.14
2017-12-31T19:47:07.391Z,100562.07
2017-12-31T19:49:36.305Z,100564.86
2017-12-31T19:52:05.210Z,100563.95
2017-12-31T19:54:34.264Z,100564.28
2017-12-31T19:57:03.402Z,100567.53
2017-12-31T19:59:32.353Z,100567.09
2017-12-31T20:02:01.352Z,100568.70
2017-12-31T20:04:30.513Z,100571.97
2017-12-31T20:06:59.557Z,100578.78
2017-12-31T20:09:28.641Z,100582.19
2017-12-31T20:11:57.777Z,100573.89
2017-12-31T20:14:26.703Z,100573.78
2017-12-31T20:16:56.657Z,100586.11
2017-12-31T20:19:25.742Z,100592.77
2017-12-31T20:21:54.826Z,100580.30
2017-12-31T20:26:59.785Z,100581.25
2017-12-31T20:29:29.577Z,100582.55
2017-12-31T20:31:58.787Z,100585.64
2017-12-31T20:34:27.895Z,100593.35
2017-12-31T20:36:58.055Z,100591.34
2017-12-31T20:39:28.840Z,100594.09
2017-12-31T20:41:58.869Z,100590.71
2017-12-31T20:44:28.711Z,100583.67
2017-12-31T20:46:58.576Z,100580.08
2017-12-31T20:49:27.594Z,100581.06
2017-12-31T20:51:57.608Z,100575.14
2017-12-31T20:54:26.535Z,100574.19
2017-12-31T20:56:55.399Z,100571.16
2017-12-31T20:59:24.322Z,100569.78
2017-12-31T21:01:53.424Z,100570.47
2017-12-31T21:04:22.477Z,100562.30
2017-12-31T21:06:51.548Z,100564.67
2017-12-31T21:09:22.407Z,100569.27
2017-12-31T21:11:51.852Z,100570.66
2017-12-31T21:14:20.947Z,100561.69
2017-12-31T21:16:50.692Z,100550.47
2017-12-31T21:19:19.545Z,100547.94
2017-12-31T21:21:49.631Z,100537.98
2017-12-31T21:24:18.633Z,100534.58
2017-12-31T21:26:47.618Z,100539.64
2017-12-31T21:29:16.650Z,100541.98
2017-12-31T21:34:22.589Z,100535.20
2017-12-31T21:36:51.503Z,100533.70
2017-12-31T21:39:20.527Z,100532.13
2017-12-31T21:41:49.817Z,100538.70
2017-12-31T21:44:18.869Z,100524.53
2017-12-31T21:46:47.858Z,100524.69
2017-12-31T21:49:19.666Z,100525.23
2017-12-31T21:51:48.613Z,100509.73
2017-12-31T21:54:17.426Z,100507.98
2017-12-31T21:56:46.398Z,100516.02
2017-12-31T21:59:15.257Z,100509.70
2017-12-31T22:01:44.279Z,100504.20
2017-12-31T22:04:15.168Z,100509.40
2017-12-31T22:06:44.112Z,100519.23
2017-12-31T22:09:13.108Z,100524.35
2017-12-31T22:11:44.357Z,100515.43
2017-12-31T22:14:16.009Z,100516.33
2017-12-31T22:16:45.118Z,100517.02
2017-12-31T22:19:16.678Z,100514.86
2017-12-31T22:21:45.547Z,100513.18
2017-12-31T22:24:14.347Z,100514.89
2017-12-31T22:26:44.008Z,100505.20
2017-12-31T22:29:12.878Z,100509.50
2017-12-31T22:31:41.711Z,100502.77
2017-12-31T22:36:44.432Z,100515.98
2017-12-31T22:39:13.606Z,100508.95
2017-12-31T22:41:42.619Z,100506.48
2017-12-31T22:44:11.710Z,100509.05
2017-12-31T22:46:40.762Z,100497.70
2017-12-31T22:49:09.705Z,100501.98
2017-12-31T22:51:38.796Z,100498.06
2017-12-31T22:54:07.676Z,100499.26
2017-12-31T22:56:41.383Z,100485.83
2017-12-31T22:59:10.289Z,100488.16
2017-12-31T23:01:39.171Z,100476.81
2017-12-31T23:04:09.903Z,100472.63
2017-12-31T23:06:39.004Z,100476.52
2017-12-31T23:09:07.990Z,100471.33
2017-12-31T23:11:37.008Z,100467.63
2017-12-31T23:14:05.989Z,100466.41
2017-12-31T23:16:35.112Z,100471.84
2017-12-31T23:19:04.407Z,100473.12
2017-12-31T23:21:33.297Z,100475.27
2017-12-31T23:24:02.907Z,100473.27
2017-12-31T23:26:32.003Z,100466.59
2017-12-31T23:29:01.677Z,100466.23
2017-12-31T23:31:30.877Z,100471.30
2017-12-31T23:34:02.431Z,100469.53
2017-12-31T23:36:31.742Z,100473.34
2017-12-31T23:39:00.760Z,100471.23
2017-12-31T23:41:31.701Z,100472.41
2017-12-31T23:44:00.661Z,100476.16
2017-12-31T23:46:30.516Z,100471.08
2017-12-31T23:49:00.595Z,100474.47
2017-12-31T23:51:30.541Z,100477.03
2017-12-31T23:54:00.318Z,100480.81
2017-12-31T23:56:32.831Z,100480.82
2017-12-31T23:59:01.899Z,100478.70
